createdAt,value
2023-05-13T00:04:59.960Z,15.41
2023-05-13T00:10:01.941Z,15.36
2023-05-13T00:15:04.167Z,15.27
2023-05-13T00:20:06.921Z,15.19
2023-05-13T00:25:09.216Z,15.13
2023-05-13T00:30:11.452Z,15.10
2023-05-13T00:35:13.450Z,15.09
2023-05-13T00:40:24.365Z,15.09
2023-05-13T00:45:26.729Z,15.06
2023-05-13T00:50:28.649Z,15.07
2023-05-13T00:55:30.744Z,15.02
2023-05-13T01:00:36.811Z,14.96
2023-05-13T01:05:54.431Z,14.92
2023-05-13T01:11:04.026Z,14.84
2023-05-13T01:16:30.306Z,14.76
2023-05-13T01:21:37.335Z,14.70
2023-05-13T01:26:39.607Z,14.64
2023-05-13T01:31:43.152Z,14.60
2023-05-13T01:36:45.814Z,14.55
2023-05-13T01:41:48.593Z,14.47
2023-05-13T01:46:53.713Z,14.42
2023-05-13T01:51:56.645Z,14.39
2023-05-13T01:56:59.383Z,14.37
2023-05-13T02:02:01.579Z,14.35
2023-05-13T02:07:03.777Z,14.32
2023-05-13T02:12:08.296Z,14.29
2023-05-13T02:17:11.508Z,14.27
2023-05-13T02:22:13.446Z,14.23
2023-05-13T02:27:16.585Z,14.16
2023-05-13T02:32:18.352Z,14.11
2023-05-13T02:37:20.389Z,14.09
2023-05-13T02:42:31.615Z,14.05
2023-05-13T02:47:33.919Z,13.98
2023-05-13T02:52:40.243Z,13.91
2023-05-13T02:57:43.309Z,13.85
2023-05-13T03:02:45.554Z,13.83
2023-05-13T03:07:47.483Z,13.82
2023-05-13T03:12:49.887Z,13.83
2023-05-13T03:17:51.686Z,13.84
2023-05-13T03:22:55.294Z,13.84
2023-05-13T03:27:57.403Z,13.81
2023-05-13T03:33:02.138Z,13.81
2023-05-13T03:38:04.216Z,13.81
2023-05-13T03:43:09.500Z,13.81
2023-05-13T03:48:13.848Z,13.79
2023-05-13T03:53:17.035Z,13.80
2023-05-13T03:58:21.853Z,13.86
2023-05-13T04:03:23.741Z,13.92
2023-05-13T04:08:25.863Z,13.94
2023-05-13T04:13:27.844Z,13.99
2023-05-13T04:18:31.241Z,14.01
2023-05-13T04:23:39.968Z,14.02
2023-05-13T04:28:41.929Z,14.06
2023-05-13T04:33:45.356Z,14.13
2023-05-13T04:38:47.967Z,14.21
2023-05-13T04:43:51.600Z,14.27
2023-05-13T04:48:53.912Z,14.32
2023-05-13T04:53:56.160Z,14.37
2023-05-13T04:58:58.145Z,14.42
2023-05-13T05:04:00.156Z,14.45
2023-05-13T05:09:03.824Z,14.51
2023-05-13T05:14:05.991Z,14.63
2023-05-13T05:19:08.329Z,14.71
2023-05-13T05:24:12.480Z,14.79
2023-05-13T05:29:14.567Z,14.87
2023-05-13T05:34:18.461Z,14.92
2023-05-13T05:39:20.681Z,14.98
2023-05-13T05:44:22.618Z,15.04
2023-05-13T05:49:24.547Z,15.02
2023-05-13T05:54:26.588Z,15.08
2023-05-13T05:59:28.524Z,15.16
2023-05-13T06:04:31.195Z,15.25
2023-05-13T06:09:33.354Z,15.31
2023-05-13T06:14:35.433Z,15.34
2023-05-13T06:19:37.387Z,15.39
2023-05-13T06:24:39.250Z,15.58
2023-05-13T06:29:42.948Z,15.67
2023-05-13T06:34:48.538Z,15.75
2023-05-13T06:39:50.774Z,15.90
2023-05-13T06:44:53.779Z,16.04
2023-05-13T06:50:04.551Z,16.14
2023-05-13T06:55:06.927Z,16.23
2023-05-13T07:00:11.441Z,16.29
2023-05-13T07:05:13.572Z,16.40
2023-05-13T07:10:15.662Z,16.55
2023-05-13T07:15:17.896Z,16.72
2023-05-13T07:20:22.774Z,16.91
2023-05-13T07:25:24.954Z,17.03
2023-05-13T07:30:26.851Z,17.07
2023-05-13T07:35:28.833Z,17.12
2023-05-13T07:40:30.761Z,17.25
2023-05-13T07:45:32.670Z,17.45
2023-05-13T07:50:36.186Z,17.63
2023-05-13T07:55:38.317Z,17.60
2023-05-13T08:00:40.195Z,17.71
2023-05-13T08:05:42.276Z,17.86
2023-05-13T08:10:48.382Z,18.05
2023-05-13T08:15:50.132Z,18.11
2023-05-13T08:20:52.138Z,18.09
2023-05-13T08:25:53.977Z,18.18
2023-05-13T08:31:02.938Z,18.21
2023-05-13T08:36:05.908Z,18.20
2023-05-13T08:41:08.084Z,18.47
2023-05-13T08:46:12.128Z,18.61
2023-05-13T08:51:14.184Z,18.77
2023-05-13T08:56:17.176Z,18.75
2023-05-13T09:01:19.659Z,18.34
2023-05-13T09:06:22.119Z,18.21
2023-05-13T09:11:24.459Z,18.23
2023-05-13T09:16:29.020Z,18.18
2023-05-13T09:21:35.510Z,18.38
2023-05-13T09:26:38.378Z,18.31
2023-05-13T09:31:40.274Z,18.36
2023-05-13T09:36:43.119Z,18.58
2023-05-13T09:41:45.273Z,18.74
2023-05-13T09:46:47.498Z,18.94
2023-05-13T09:51:49.380Z,18.92
2023-05-13T09:56:58.780Z,19.01
2023-05-13T10:02:10.324Z,18.99
2023-05-13T10:07:13.276Z,18.94
2023-05-13T10:12:15.550Z,19.10
2023-05-13T10:17:20.009Z,19.15
2023-05-13T10:22:31.563Z,19.03
2023-05-13T10:27:34.608Z,19.30
2023-05-13T10:32:40.298Z,19.29
2023-05-13T10:37:51.073Z,19.53
2023-05-13T10:43:20.679Z,19.63
2023-05-13T10:48:23.287Z,19.75
2023-05-13T10:53:36.500Z,19.67
2023-05-13T10:58:38.504Z,19.60
2023-05-13T11:03:41.240Z,19.59
2023-05-13T11:08:45.841Z,19.53
2023-05-13T11:13:50.796Z,19.51
2023-05-13T11:18:53.273Z,19.44
2023-05-13T11:24:02.567Z,19.35
2023-05-13T11:29:06.237Z,19.37
2023-05-13T11:34:13.292Z,19.40
2023-05-13T11:39:19.856Z,19.31
2023-05-13T11:44:24.015Z,19.16
2023-05-13T11:49:40.425Z,19.09
2023-05-13T11:54:45.167Z,19.10
2023-05-13T11:59:54.671Z,19.14
2023-05-13T12:05:00.407Z,19.00
2023-05-13T12:10:04.265Z,18.94
2023-05-13T12:15:10.816Z,19.01
2023-05-13T12:20:19.109Z,19.04
2023-05-13T12:25:41.636Z,19.19
2023-05-13T12:30:50.237Z,19.26
2023-05-13T12:35:54.286Z,19.25
2023-05-13T12:40:56.472Z,19.06
2023-05-13T12:45:58.307Z,18.83
2023-05-13T12:51:02.022Z,18.83
2023-05-13T12:56:04.400Z,18.89
2023-05-13T13:01:09.611Z,18.89
2023-05-13T13:06:13.024Z,18.72
2023-05-13T13:11:21.711Z,18.76
2023-05-13T13:16:23.899Z,18.90
2023-05-13T13:21:25.965Z,18.93
2023-05-13T13:26:27.848Z,19.02
2023-05-13T13:31:29.691Z,19.16
2023-05-13T13:36:32.857Z,19.25
2023-05-13T13:41:34.651Z,19.23
2023-05-13T13:46:36.530Z,19.19
2023-05-13T13:51:38.682Z,19.18
2023-05-13T13:56:40.986Z,19.06
2023-05-13T14:01:47.151Z,18.86
2023-05-13T14:06:50.279Z,18.64
2023-05-13T14:11:52.237Z,18.49
2023-05-13T14:16:54.231Z,18.34
2023-05-13T14:21:56.097Z,18.33
2023-05-13T14:26:59.252Z,18.33
2023-05-13T14:32:03.450Z,18.30
2023-05-13T14:37:05.723Z,18.24
2023-05-13T14:42:07.703Z,18.20
2023-05-13T14:47:10.604Z,18.20
2023-05-13T14:52:12.623Z,18.18
2023-05-13T14:57:14.466Z,18.16
2023-05-13T15:02:17.659Z,18.12
2023-05-13T15:07:20.873Z,18.10
2023-05-13T15:12:22.753Z,18.07
2023-05-13T15:17:24.622Z,18.05
2023-05-13T15:22:27.038Z,18.06
2023-05-13T15:27:29.151Z,18.09
2023-05-13T15:32:31.193Z,18.09
2023-05-13T15:37:33.395Z,17.99
2023-05-13T15:42:35.504Z,17.76
2023-05-13T15:47:37.765Z,17.63
2023-05-13T15:52:40.178Z,17.55
2023-05-13T15:57:42.164Z,17.52
2023-05-13T16:02:44.354Z,17.49
2023-05-13T16:07:46.761Z,17.43
2023-05-13T16:12:49.198Z,17.39
2023-05-13T16:17:51.166Z,17.38
2023-05-13T16:22:53.124Z,17.39
2023-05-13T16:27:56.736Z,17.41
2023-05-13T16:32:59.173Z,17.31
2023-05-13T16:38:01.593Z,17.21
2023-05-13T16:43:04.074Z,17.11
2023-05-13T16:48:06.523Z,17.10
2023-05-13T16:53:08.637Z,17.11
2023-05-13T16:58:10.500Z,17.11
2023-05-13T17:03:13.625Z,17.17
2023-05-13T17:08:17.283Z,17.22
2023-05-13T17:13:19.858Z,17.26
2023-05-13T17:18:21.677Z,17.27
2023-05-13T17:23:23.490Z,17.25
2023-05-13T17:28:25.310Z,17.19
2023-05-13T17:33:27.656Z,17.10
2023-05-13T17:38:29.530Z,17.01
2023-05-13T17:43:31.332Z,16.92
2023-05-13T17:48:33.338Z,16.84
2023-05-13T17:53:35.360Z,16.73
2023-05-13T17:58:37.478Z,16.68
2023-05-13T18:03:39.322Z,16.61
2023-05-13T18:08:41.387Z,16.58
2023-05-13T18:13:43.170Z,16.59
2023-05-13T18:18:45.199Z,16.60
2023-05-13T18:23:47.140Z,16.60
2023-05-13T18:28:49.064Z,16.63
2023-05-13T18:33:51.162Z,16.63
2023-05-13T18:38:53.008Z,16.59
2023-05-13T18:43:54.866Z,16.52
2023-05-13T18:48:56.830Z,16.49
2023-05-13T18:53:58.574Z,16.47
2023-05-13T18:59:00.915Z,16.45
2023-05-13T19:04:02.845Z,16.42
2023-05-13T19:09:05.274Z,16.38
2023-05-13T19:14:07.437Z,16.32
2023-05-13T19:19:09.472Z,16.27
2023-05-13T19:24:11.518Z,16.23
2023-05-13T19:29:13.671Z,16.19
2023-05-13T19:34:15.542Z,16.12
2023-05-13T19:39:17.462Z,16.05
2023-05-13T19:44:19.644Z,15.99
2023-05-13T19:49:21.528Z,15.93
2023-05-13T19:54:23.446Z,15.90
2023-05-13T19:59:25.351Z,15.87
2023-05-13T20:04:27.205Z,15.87
2023-05-13T20:09:30.692Z,15.88
2023-05-13T20:14:47.105Z,15.88
2023-05-13T20:19:50.968Z,15.86
2023-05-13T20:24:54.552Z,15.85
2023-05-13T20:30:00.585Z,15.85
2023-05-13T20:35:03.670Z,15.83
2023-05-13T20:40:06.433Z,15.80
2023-05-13T20:45:08.822Z,15.79
2023-05-13T20:50:11.260Z,15.79
2023-05-13T20:55:15.494Z,15.80
2023-05-13T21:00:17.866Z,15.80
2023-05-13T21:05:19.969Z,15.81
2023-05-13T21:10:22.462Z,15.79
2023-05-13T21:15:24.572Z,15.79
2023-05-13T21:20:26.534Z,15.80
2023-05-13T21:25:28.359Z,15.83
2023-05-13T21:30:32.266Z,15.83
2023-05-13T21:35:33.989Z,15.81
2023-05-13T21:40:38.487Z,15.79
2023-05-13T21:45:40.680Z,15.79
2023-05-13T21:50:43.593Z,15.77
2023-05-13T21:55:45.407Z,15.73
2023-05-13T22:00:47.557Z,15.73
2023-05-13T22:05:49.506Z,15.68
2023-05-13T22:10:51.383Z,15.68
2023-05-13T22:15:53.630Z,15.66
2023-05-13T22:20:55.783Z,15.65
2023-05-13T22:25:57.824Z,15.62
2023-05-13T22:30:59.940Z,15.60
2023-05-13T22:36:01.780Z,15.58
2023-05-13T22:41:03.614Z,15.54
2023-05-13T22:46:05.528Z,15.48
2023-05-13T22:51:07.388Z,15.42
2023-05-13T22:56:09.491Z,15.34
2023-05-13T23:01:11.468Z,15.30
2023-05-13T23:06:13.613Z,15.28
2023-05-13T23:11:16.580Z,15.23
2023-05-13T23:16:19.088Z,15.24
2023-05-13T23:21:21.057Z,15.27
2023-05-13T23:26:24.923Z,15.30
2023-05-13T23:31:26.965Z,15.30
2023-05-13T23:36:28.870Z,15.32
2023-05-13T23:41:30.834Z,15.32
2023-05-13T23:46:32.727Z,15.35
2023-05-13T23:51:38.512Z,15.36
2023-05-13T23:56:40.433Z,15.35
